Flight Track Log - Related Links

Times and Time Zones

All times are in EDT time to prevent confusion due to time zone crossing. See the CHQ5275 flight status page for this flight to view local times or setup timezone preferences in your user account.

Time Position Orientation Groundspeed Altitude Reporting Facility
EDT Latitude Longitude Course Direction KTS MPH feet Rate Location/Type
Fri 05:42:03 PM 30.5292 -81.6000 68° East 236 272 2,500  Level Jacksonville Center
Fri 05:42:42 PM 30.5475 -81.5419 70° East 251 289 3,700 1,869 Climbing Jacksonville Center
Fri 05:43:00 PM 30.7714 -81.5540 16° North  Level FlightAware Approximate
Fri 05:43:04 PM 30.5536 -81.5247 68° East 256 295 4,400  Level Jacksonville Center
Fri 05:43:42 PM 30.5697 -81.4714 71° East 283 326 5,700 2,204 Climbing Jacksonville Center
Fri 05:44:42 PM 30.6106 -81.3936 23° Northeast 294 338 8,000 2,200 Climbing Jacksonville Center
Fri 05:45:00 PM 30.9675 -81.4763 19° North  Level FlightAware Approximate
Fri 05:45:00 PM 30.6942 -81.5316 23° Northeast  Level Estimated
Fri 05:45:42 PM 30.6789 -81.3564 25° Northeast 272 313 10,100  Level Jacksonville Center
Fri 05:46:00 PM 31.0620 -81.4306 11° North  Level FlightAware Approximate
Fri 05:46:42 PM 30.7606 -81.3744 349° North 256 295 11,600  Level Jacksonville Center
Fri 05:47:42 PM 30.8486 -81.3994 346° North 279 321 12,900 1,550 Climbing Jacksonville Center
Fri 05:48:42 PM 30.9364 -81.4103 354° North 302 348 14,700 1,800 Climbing Jacksonville Center
Fri 05:49:42 PM 31.0181 -81.4186 355° North 322 371 16,500 1,600 Climbing Jacksonville Center
Fri 05:50:42 PM 31.1017 -81.4294 354° North 317 365 17,900 1,450 Climbing Jacksonville Center
Fri 05:51:42 PM 31.1894 -81.4428 353° North 317 365 19,400 1,500 Climbing Jacksonville Center
Fri 05:52:42 PM 31.2794 -81.4511 355° North 317 365 20,900 1,550 Climbing Jacksonville Center
Fri 05:53:42 PM 31.3778 -81.4642 354° North 317 365 22,500 1,500 Climbing Jacksonville Center
Fri 05:54:42 PM 31.4592 -81.4750 354° North 317 365 23,900 1,500 Climbing Jacksonville Center
Fri 05:55:42 PM 31.5575 -81.4858 355° North 323 372 25,500 1,500 Climbing Jacksonville Center
Fri 05:56:42 PM 31.6453 -81.4967 354° North 313 360 26,900 1,400 Climbing Jacksonville Center
Fri 05:57:42 PM 31.7225 -81.5078 353° North 306 352 28,300 1,300 Climbing Jacksonville Center
Fri 05:58:42 PM 31.8167 -81.5211 353° North 306 352 29,500 1,150 Climbing Jacksonville Center
Fri 05:59:42 PM 31.8942 -81.5297 355° North 312 359 30,600 1,150 Climbing Jacksonville Center
Fri 06:00:42 PM 31.9903 -81.5428 353° North 312 359 31,800 1,100 Climbing Jacksonville Center
Fri 06:01:42 PM 32.0758 -81.5514 355° North 312 359 32,800 1,000 Climbing Jacksonville Center
Fri 06:02:42 PM 32.1553 -81.5625 353° North 312 359 33,800 950 Climbing Jacksonville Center
Fri 06:03:42 PM 32.2517 -81.5758 353° North 312 359 34,700 600 Climbing Jacksonville Center
Fri 06:04:42 PM 32.3414 -81.5869 354° North 312 359 35,000 200 Climbing Jacksonville Center
Fri 06:05:42 PM 32.4272 -81.5981 354° North 330 380 35,100 50 Climbing Jacksonville Center
Fri 06:06:42 PM 32.5381 -81.6111 354° North 357 411 35,100  Level Jacksonville Center
Fri 06:07:42 PM 32.6425 -81.6269 353° North 377 434 35,100 -50 Level Jacksonville Center
Fri 06:08:42 PM 32.7386 -81.6356 356° North 382 440 35,000 -33 Descending Jacksonville Center
Fri 06:10:46 PM 32.9472 -81.6797 350° North 373 429 35,000  Level Atlanta Center
Fri 06:11:46 PM 33.0439 -81.7217 340° North 367 422 35,000 200 Level Atlanta Center
Fri 06:12:46 PM 33.1386 -81.7614 341° North 362 417 35,400 500 Climbing Atlanta Center
Fri 06:13:46 PM 33.2311 -81.8039 339° North 357 411 36,000 300 Climbing Atlanta Center
Fri 06:14:46 PM 33.3258 -81.8436 341° North 357 411 36,000  Level Atlanta Center
Fri 06:15:46 PM 33.4206 -81.8836 341° North 357 411 36,000  Level Atlanta Center
Fri 06:16:46 PM 33.5153 -81.9258 340° North 357 411 36,000  Level Atlanta Center
Fri 06:17:46 PM 33.6119 -81.9661 341° North 357 411 36,000  Level Atlanta Center
Fri 06:18:46 PM 33.7169 -82.0083 342° North 362 417 36,000  Level Atlanta Center
Fri 06:19:46 PM 33.8117 -82.0536 338° Northwest 362 417 36,000 50 Level Atlanta Center
Fri 06:20:46 PM 33.9083 -82.0939 341° North 362 417 36,100  Climbing Atlanta Center
Fri 06:21:46 PM 34.0028 -82.1369 339° North 362 417 36,000  Descending Atlanta Center
Fri 06:22:46 PM 34.0975 -82.1775 340° North 362 417 36,100  Climbing Atlanta Center
Fri 06:23:46 PM 34.1939 -82.2156 342° North 362 417 36,000 -50 Descending Atlanta Center
Fri 06:24:46 PM 34.3025 -82.2208 358° North 378 435 36,000  Level Atlanta Center
Fri 06:25:46 PM 34.4172 -82.2158 North 386 444 36,000 50 Level Atlanta Center
Fri 06:26:46 PM 34.5236 -82.2108 North 391 450 36,100  Climbing Atlanta Center
Fri 06:27:46 PM 34.6322 -82.2186 357° North 391 450 36,000 -50 Descending Atlanta Center
Fri 06:28:46 PM 34.7164 -82.2597 338° Northwest 366 421 36,000 50 Level Atlanta Center
Fri 06:29:46 PM 34.8089 -82.3083 337° Northwest 361 415 36,100  Climbing Atlanta Center
Fri 06:30:46 PM 34.9014 -82.3519 339° North 356 410 36,000 -50 Descending Atlanta Center
Fri 06:31:46 PM 34.9936 -82.3983 338° Northwest 356 410 36,000  Level Atlanta Center
Fri 06:32:46 PM 35.0861 -82.4447 338° Northwest 356 410 36,000  Level Atlanta Center
Fri 06:33:46 PM 35.1806 -82.4939 337° Northwest 356 410 36,000  Level Atlanta Center
Fri 06:34:46 PM 35.2772 -82.5403 339° North 361 415 36,000  Level Atlanta Center
Fri 06:35:46 PM 35.3656 -82.5872 337° Northwest 361 415 36,000  Level Atlanta Center
Fri 06:36:46 PM 35.4683 -82.6364 339° North 352 405 36,000  Level Atlanta Center
Fri 06:37:46 PM 35.5628 -82.6831 338° Northwest 357 411 36,000  Level Atlanta Center
Fri 06:38:46 PM 35.6569 -82.7328 337° Northwest 362 417 36,000  Level Atlanta Center
Fri 06:39:46 PM 35.7494 -82.7797 338° Northwest 357 411 36,000  Level Atlanta Center
Fri 06:40:46 PM 35.8436 -82.8269 338° Northwest 357 411 36,000  Level Atlanta Center
Fri 06:41:46 PM 35.9400 -82.8744 338° Northwest 363 418 36,000  Level Atlanta Center
Fri 06:42:46 PM 36.0344 -82.9244 337° Northwest 363 418 36,000  Level Atlanta Center
Fri 06:43:46 PM 36.1308 -82.9719 338° Northwest 363 418 36,000  Level Atlanta Center
Fri 06:44:46 PM 36.2250 -83.0222 337° Northwest 363 418 36,000 50 Level Atlanta Center
Fri 06:45:46 PM 36.3214 -83.0725 337° Northwest 363 418 36,100  Climbing Atlanta Center
Fri 06:47:09 PM 36.4508 -83.1356 339° North 373 429 36,000 -41 Descending Indianapolis Center
Fri 06:48:11 PM 36.5486 -83.1856 338° Northwest 374 430 36,000  Level Indianapolis Center
Fri 06:49:13 PM 36.6464 -83.2378 337° Northwest 376 433 36,000  Level Indianapolis Center
Fri 06:50:15 PM 36.7453 -83.2886 338° Northwest 376 433 36,000  Level Indianapolis Center
Fri 06:51:17 PM 36.8603 -83.3497 337° Northwest 377 434 36,000  Level Indianapolis Center
Fri 06:52:19 PM 36.9592 -83.4006 338° Northwest 378 435 36,000  Level Indianapolis Center
Fri 06:53:21 PM 37.0578 -83.4517 338° Northwest 378 435 36,000  Level Indianapolis Center
Fri 06:54:23 PM 37.1561 -83.5050 337° Northwest 380 437 36,000  Level Indianapolis Center
Fri 06:55:25 PM 37.2556 -83.5567 338° Northwest 382 440 36,000  Level Indianapolis Center
Fri 06:56:27 PM 37.3539 -83.6100 337° Northwest 382 440 36,000  Level Indianapolis Center
Fri 06:57:29 PM 37.4547 -83.6631 337° Northwest 385 443 36,000  Level Indianapolis Center
Fri 06:58:31 PM 37.5714 -83.7258 337° Northwest 387 445 36,000  Level Indianapolis Center
Fri 06:59:32 PM 37.6719 -83.7800 337° Northwest 388 447 36,000  Level Indianapolis Center
Fri 07:00:34 PM 37.7733 -83.8333 337° Northwest 389 448 36,000  Level Indianapolis Center
Fri 07:01:36 PM 37.8750 -83.8869 337° Northwest 392 451 36,000  Level Indianapolis Center
Fri 07:02:38 PM 37.9778 -83.9403 338° Northwest 394 453 36,000  Level Indianapolis Center
Fri 07:03:40 PM 38.0786 -83.9967 336° Northwest 394 453 36,000  Level Indianapolis Center
Fri 07:04:42 PM 38.1964 -84.0606 337° Northwest 394 453 36,000  Level Indianapolis Center
Fri 07:05:43 PM 38.2972 -84.1136 338° Northwest 394 453 36,000  Level Indianapolis Center
Fri 07:06:45 PM 38.3978 -84.1692 337° Northwest 393 452 36,000  Level Indianapolis Center
Fri 07:07:47 PM 38.4975 -84.2247 336° Northwest 392 451 36,000  Level Indianapolis Center
Fri 07:08:49 PM 38.5978 -84.2792 337° Northwest 392 451 36,000  Level Indianapolis Center
Fri 07:09:51 PM 38.6806 -84.3442 328° Northwest 386 444 36,000  Level Indianapolis Center
Fri 07:10:52 PM 38.7719 -84.4500 318° Northwest 375 432 36,000 -49 Level Indianapolis Center
Fri 07:11:54 PM 38.8431 -84.5328 318° Northwest 367 422 35,900 -532 Descending Indianapolis Center
Fri 07:12:56 PM 38.9236 -84.6261 318° Northwest 367 422 34,900 -919 Descending Indianapolis Center
Fri 07:13:58 PM 39.0000 -84.7136 318° Northwest 368 423 34,000 -927 Descending Indianapolis Center
Fri 07:14:59 PM 39.0739 -84.8022 317° Northwest 367 422 33,000 -1,024 Descending Indianapolis Center
Fri 07:16:01 PM 39.1583 -84.9006 318° Northwest 366 421 31,900 -1,016 Descending Indianapolis Center
Fri 07:17:03 PM 39.2328 -84.9881 318° Northwest 361 415 30,900 -919 Descending Indianapolis Center
Fri 07:18:05 PM 39.3083 -85.0753 318° Northwest 362 417 30,000 -919 Descending Indianapolis Center
Fri 07:19:07 PM 39.3919 -85.1481 326° Northwest 367 422 29,000 -649 Descending Indianapolis Center
Fri 07:21:10 PM 39.5975 -85.2447 340° North 394 453 28,000 -357 Descending Indianapolis Center
Fri 07:22:12 PM 39.7183 -85.3031 340° North 393 452 27,900 -484 Descending Indianapolis Center
Fri 07:23:14 PM 39.8214 -85.3519 340° North 393 452 27,000 -878 Descending Indianapolis Center
Fri 07:24:15 PM 39.9250 -85.4019 340° North 394 453 26,100 -780 Descending Indianapolis Center
Fri 07:25:17 PM 40.0283 -85.4522 340° North 397 457 25,400 -823 Descending Indianapolis Center
Fri 07:26:19 PM 40.1292 -85.5003 340° North 395 455 24,400 -677 Descending Indianapolis Center
Fri 07:27:21 PM 40.2294 -85.5494 339° North 393 452 24,000 -195 Descending Indianapolis Center
Fri 07:28:22 PM 40.3519 -85.6078 340° North 393 452 24,000  Level Indianapolis Center
Fri 07:29:24 PM 40.4556 -85.6528 342° North 393 452 24,000  Level Indianapolis Center
Fri 07:30:26 PM 40.5592 -85.7000 341° North 393 452 24,000 -339 Level Indianapolis Center
Fri 07:31:28 PM 40.6644 -85.7486 341° North 399 459 23,300 -780 Descending Indianapolis Center
Fri 07:32:29 PM 40.7667 -85.7953 341° North 395 455 22,400 -976 Descending Indianapolis Center
Fri 07:33:31 PM 40.8708 -85.8419 341° North 393 452 21,300 -677 Descending Indianapolis Center
Fri 07:34:33 PM 40.9917 -85.8989 340° North 390 449 21,000 -145 Descending Indianapolis Center
Fri 07:35:35 PM 41.0900 -85.9442 341° North 380 437 21,000  Level Indianapolis Center
Fri 07:36:36 PM 41.1856 -85.9892 340° North 371 427 21,000 -537 Level Indianapolis Center
Fri 07:37:38 PM 41.2739 -86.0472 334° Northwest 370 426 19,900 -1,113 Descending Indianapolis Center
Fri 07:38:40 PM 41.3008 -86.1642 287° West 340 391 18,700 -1,258 Descending Indianapolis Center
Fri 07:39:42 PM 41.3139 -86.2839 278° West 335 386 17,300 -823 Descending Indianapolis Center
Fri 07:40:44 PM 41.3289 -86.4222 278° West 327 376 17,000 -211 Descending Indianapolis Center
Fri 07:42:04 PM 41.3572 -86.5683 285° West 325 374 16,800 -634 Descending Chicago Center
Fri 07:43:06 PM 41.4386 -86.6369 328° Northwest 347 399 15,500 -1,403 Descending Chicago Center
Fri 07:44:08 PM 41.5250 -86.6967 333° Northwest 349 402 13,900 -1,548 Descending Chicago Center
Fri 07:45:10 PM 41.6178 -86.7636 332° Northwest 346 398 12,300 -919 Descending Chicago Center
Fri 07:46:12 PM 41.7017 -86.8008 342° North 325 374 12,000 -145 Descending Chicago Center
Fri 07:47:14 PM 41.8019 -86.8142 354° North 336 387 12,000  Level Chicago Center
Fri 07:48:16 PM 41.8894 -86.8525 342° North 339 390 12,000 -290 Level Chicago Center
Fri 07:49:18 PM 41.9383 -86.9542 303° West 315 362 11,400 -768 Descending Chicago Center
Fri 07:50:21 PM 41.9644 -87.0656 288° West 313 360 10,400 -768 Descending Chicago Center
Fri 07:51:23 PM 41.9842 -87.1600 286° West 265 305 9,800 -823 Descending Chicago Center
Fri 07:52:25 PM 41.9817 -87.2453 268° West 213 245 8,700 -1,016 Descending Chicago Center
Fri 07:53:27 PM 41.9828 -87.3164 271° West 192 221 7,700 -823 Descending Chicago Center
Fri 07:54:29 PM 41.9822 -87.3925 269° West 189 217 7,000 -339 Descending Chicago Center
Fri 07:55:31 PM 41.9831 -87.4494 271° West 158 182 7,000 -242 Level Chicago Center
Fri 07:56:33 PM 41.9819 -87.5131 269° West 157 181 6,500 -774 Descending Chicago Center
Fri 07:57:35 PM 41.9828 -87.5744 271° West 163 188 5,400 -900 Descending Chicago Center
Fri 07:58:33 PM 41.9833 -87.6333 271° West 154 177 4,700 -774 Descending Chicago TRACON
Fri 07:59:39 PM 41.9833 -87.6833 270° West 147 169 3,800 -800 Descending Chicago TRACON
Fri 08:00:33 PM 41.9833 -87.7333 270° West 134 154 3,100 -789 Descending Chicago TRACON
Fri 08:01:33 PM 41.9833 -87.7833 270° West 136 157 2,300 -700 Descending Chicago TRACON
Fri 08:02:33 PM 41.9833 -87.8333 270° West 111 128 1,700 -650 Descending Chicago TRACON
Fri 08:03:33 PM 41.9833 -87.8667 270° West 120 138 1,000 -700 Descending Chicago TRACON

Login

Don't have an account? Register now (free) for customized features, flight alerts, and more!